sensor_id;sensor_type;location;lat;lon;timestamp;temperature;humidity
64549;DHT22;49838;51.798;10.954;2023-12-14T00:02:25;11.60;51.70
64549;DHT22;49838;51.798;10.954;2023-12-14T00:04:52;11.50;51.70
64549;DHT22;49838;51.798;10.954;2023-12-14T00:07:19;11.40;51.70
64549;DHT22;49838;51.798;10.954;2023-12-14T00:09:46;11.40;51.60
64549;DHT22;49838;51.798;10.954;2023-12-14T00:12:18;11.40;51.40
64549;DHT22;49838;51.798;10.954;2023-12-14T00:14:45;11.50;51.40
64549;DHT22;49838;51.798;10.954;2023-12-14T00:17:12;11.50;51.50
64549;DHT22;49838;51.798;10.954;2023-12-14T00:19:40;11.40;51.40
64549;DHT22;49838;51.798;10.954;2023-12-14T00:22:08;11.40;51.40
64549;DHT22;49838;51.798;10.954;2023-12-14T00:24:35;11.40;51.50
64549;DHT22;49838;51.798;10.954;2023-12-14T00:27:03;11.30;51.50
64549;DHT22;49838;51.798;10.954;2023-12-14T00:29:31;11.30;51.50
64549;DHT22;49838;51.798;10.954;2023-12-14T00:31:59;11.30;51.60
64549;DHT22;49838;51.798;10.954;2023-12-14T00:34:26;11.30;51.60
64549;DHT22;49838;51.798;10.954;2023-12-14T00:36:53;11.30;51.50
64549;DHT22;49838;51.798;10.954;2023-12-14T00:39:20;11.30;51.60
64549;DHT22;49838;51.798;10.954;2023-12-14T00:41:48;11.30;51.70
64549;DHT22;49838;51.798;10.954;2023-12-14T00:44:15;11.30;51.70
64549;DHT22;49838;51.798;10.954;2023-12-14T00:46:43;11.30;51.80
64549;DHT22;49838;51.798;10.954;2023-12-14T00:49:11;11.20;51.70
64549;DHT22;49838;51.798;10.954;2023-12-14T00:51:38;11.20;51.70
64549;DHT22;49838;51.798;10.954;2023-12-14T00:54:06;11.20;51.80
64549;DHT22;49838;51.798;10.954;2023-12-14T00:56:33;11.10;51.70
64549;DHT22;49838;51.798;10.954;2023-12-14T00:59:00;11.10;51.80
64549;DHT22;49838;51.798;10.954;2023-12-14T01:01:28;11.10;51.70
64549;DHT22;49838;51.798;10.954;2023-12-14T01:03:57;11.20;51.90
64549;DHT22;49838;51.798;10.954;2023-12-14T01:06:25;11.10;51.90
64549;DHT22;49838;51.798;10.954;2023-12-14T01:08:52;11.10;52.00
64549;DHT22;49838;51.798;10.954;2023-12-14T01:11:19;11.00;51.90
64549;DHT22;49838;51.798;10.954;2023-12-14T01:13:47;11.00;52.00
64549;DHT22;49838;51.798;10.954;2023-12-14T01:16:14;11.00;52.00
64549;DHT22;49838;51.798;10.954;2023-12-14T01:18:41;10.90;51.80
64549;DHT22;49838;51.798;10.954;2023-12-14T01:21:10;10.90;51.80
64549;DHT22;49838;51.798;10.954;2023-12-14T01:23:37;11.00;51.70
64549;DHT22;49838;51.798;10.954;2023-12-14T01:26:05;10.90;51.70
64549;DHT22;49838;51.798;10.954;2023-12-14T01:28:32;10.90;51.60
64549;DHT22;49838;51.798;10.954;2023-12-14T01:30:59;10.90;51.60
64549;DHT22;49838;51.798;10.954;2023-12-14T01:33:26;10.90;52.00
64549;DHT22;49838;51.798;10.954;2023-12-14T01:35:54;11.00;51.90
64549;DHT22;49838;51.798;10.954;2023-12-14T01:38:22;10.90;52.30
64549;DHT22;49838;51.798;10.954;2023-12-14T01:40:49;10.90;52.20
64549;DHT22;49838;51.798;10.954;2023-12-14T01:43:17;10.80;51.80
64549;DHT22;49838;51.798;10.954;2023-12-14T01:45:44;10.80;52.30
64549;DHT22;49838;51.798;10.954;2023-12-14T01:48:11;10.70;52.10
64549;DHT22;49838;51.798;10.954;2023-12-14T01:50:38;10.70;52.50
64549;DHT22;49838;51.798;10.954;2023-12-14T01:53:06;10.70;52.20
64549;DHT22;49838;51.798;10.954;2023-12-14T01:55:34;10.60;52.00
64549;DHT22;49838;51.798;10.954;2023-12-14T01:58:02;10.60;51.90
64549;DHT22;49838;51.798;10.954;2023-12-14T02:00:33;10.70;52.10
64549;DHT22;49838;51.798;10.954;2023-12-14T02:03:05;10.60;52.60
64549;DHT22;49838;51.798;10.954;2023-12-14T02:05:32;10.60;52.40
64549;DHT22;49838;51.798;10.954;2023-12-14T02:08:00;10.50;52.30
64549;DHT22;49838;51.798;10.954;2023-12-14T02:10:27;10.50;52.10
64549;DHT22;49838;51.798;10.954;2023-12-14T02:12:55;10.50;52.10
64549;DHT22;49838;51.798;10.954;2023-12-14T02:15:23;10.50;52.20
64549;DHT22;49838;51.798;10.954;2023-12-14T02:17:50;10.40;52.00
64549;DHT22;49838;51.798;10.954;2023-12-14T02:20:17;10.40;52.20
64549;DHT22;49838;51.798;10.954;2023-12-14T02:22:52;10.30;52.10
64549;DHT22;49838;51.798;10.954;2023-12-14T02:25:20;10.30;52.20
64549;DHT22;49838;51.798;10.954;2023-12-14T02:27:49;10.40;52.20
64549;DHT22;49838;51.798;10.954;2023-12-14T02:30:17;10.30;52.40
64549;DHT22;49838;51.798;10.954;2023-12-14T02:32:45;10.30;52.40
64549;DHT22;49838;51.798;10.954;2023-12-14T02:35:12;10.30;52.40
64549;DHT22;49838;51.798;10.954;2023-12-14T02:37:40;10.30;52.20
64549;DHT22;49838;51.798;10.954;2023-12-14T02:40:09;10.30;52.10
64549;DHT22;49838;51.798;10.954;2023-12-14T02:42:37;10.40;52.00
64549;DHT22;49838;51.798;10.954;2023-12-14T02:45:05;10.50;52.00
64549;DHT22;49838;51.798;10.954;2023-12-14T02:47:33;10.40;51.80
64549;DHT22;49838;51.798;10.954;2023-12-14T02:50:01;10.40;51.80
64549;DHT22;49838;51.798;10.954;2023-12-14T02:52:28;10.40;51.80
64549;DHT22;49838;51.798;10.954;2023-12-14T02:54:55;10.40;51.80
64549;DHT22;49838;51.798;10.954;2023-12-14T02:57:24;10.50;51.70
64549;DHT22;49838;51.798;10.954;2023-12-14T02:59:51;10.50;51.70
64549;DHT22;49838;51.798;10.954;2023-12-14T03:02:18;10.60;51.70
64549;DHT22;49838;51.798;10.954;2023-12-14T03:04:46;10.50;51.70
64549;DHT22;49838;51.798;10.954;2023-12-14T03:07:13;10.60;51.70
64549;DHT22;49838;51.798;10.954;2023-12-14T03:09:40;10.70;51.60
64549;DHT22;49838;51.798;10.954;2023-12-14T03:12:10;10.80;51.50
64549;DHT22;49838;51.798;10.954;2023-12-14T03:14:38;10.70;51.50
64549;DHT22;49838;51.798;10.954;2023-12-14T03:17:06;10.60;51.60
64549;DHT22;49838;51.798;10.954;2023-12-14T03:19:38;10.60;52.00
64549;DHT22;49838;51.798;10.954;2023-12-14T03:22:06;10.50;51.70
64549;DHT22;49838;51.798;10.954;2023-12-14T03:24:34;10.50;51.90
64549;DHT22;49838;51.798;10.954;2023-12-14T03:27:02;10.50;52.20
64549;DHT22;49838;51.798;10.954;2023-12-14T03:29:29;10.40;52.20
64549;DHT22;49838;51.798;10.954;2023-12-14T03:31:58;10.40;52.10
64549;DHT22;49838;51.798;10.954;2023-12-14T03:34:26;10.40;52.20
64549;DHT22;49838;51.798;10.954;2023-12-14T03:36:54;10.40;52.10
64549;DHT22;49838;51.798;10.954;2023-12-14T03:39:21;10.40;52.00
64549;DHT22;49838;51.798;10.954;2023-12-14T03:41:48;10.40;52.20
64549;DHT22;49838;51.798;10.954;2023-12-14T03:44:15;10.40;52.20
64549;DHT22;49838;51.798;10.954;2023-12-14T03:46:43;10.30;52.10
64549;DHT22;49838;51.798;10.954;2023-12-14T03:49:11;10.30;52.00
64549;DHT22;49838;51.798;10.954;2023-12-14T03:51:40;10.40;51.90
64549;DHT22;49838;51.798;10.954;2023-12-14T03:54:07;10.40;51.80
64549;DHT22;49838;51.798;10.954;2023-12-14T03:56:34;10.40;51.70
64549;DHT22;49838;51.798;10.954;2023-12-14T03:59:01;10.40;52.00
64549;DHT22;49838;51.798;10.954;2023-12-14T04:01:29;10.40;51.90
64549;DHT22;49838;51.798;10.954;2023-12-14T04:03:56;10.20;52.20
64549;DHT22;49838;51.798;10.954;2023-12-14T04:06:25;10.20;52.80
64549;DHT22;49838;51.798;10.954;2023-12-14T04:08:52;10.10;52.30
64549;DHT22;49838;51.798;10.954;2023-12-14T04:11:19;10.10;52.30
64549;DHT22;49838;51.798;10.954;2023-12-14T04:13:47;10.10;52.40
64549;DHT22;49838;51.798;10.954;2023-12-14T04:16:18;10.10;52.70
64549;DHT22;49838;51.798;10.954;2023-12-14T04:18:46;10.10;52.40
64549;DHT22;49838;51.798;10.954;2023-12-14T04:21:13;10.10;52.30
64549;DHT22;49838;51.798;10.954;2023-12-14T04:23:42;10.10;52.30
64549;DHT22;49838;51.798;10.954;2023-12-14T04:26:11;10.10;52.40
64549;DHT22;49838;51.798;10.954;2023-12-14T04:28:39;10.10;52.30
64549;DHT22;49838;51.798;10.954;2023-12-14T04:31:09;10.10;52.60
64549;DHT22;49838;51.798;10.954;2023-12-14T04:33:37;10.10;52.50
64549;DHT22;49838;51.798;10.954;2023-12-14T04:36:04;10.00;52.60
64549;DHT22;49838;51.798;10.954;2023-12-14T04:38:33;10.00;52.80
64549;DHT22;49838;51.798;10.954;2023-12-14T04:41:02;9.90;53.50
64549;DHT22;49838;51.798;10.954;2023-12-14T04:43:29;9.80;53.70
64549;DHT22;49838;51.798;10.954;2023-12-14T04:45:58;9.80;53.50
64549;DHT22;49838;51.798;10.954;2023-12-14T04:48:25;9.80;53.80
64549;DHT22;49838;51.798;10.954;2023-12-14T04:50:52;9.80;53.50
64549;DHT22;49838;51.798;10.954;2023-12-14T04:53:19;9.80;53.40
64549;DHT22;49838;51.798;10.954;2023-12-14T04:55:47;9.80;53.20
64549;DHT22;49838;51.798;10.954;2023-12-14T04:58:15;9.80;53.10
64549;DHT22;49838;51.798;10.954;2023-12-14T05:00:43;9.90;53.20
64549;DHT22;49838;51.798;10.954;2023-12-14T05:03:10;9.90;53.10
64549;DHT22;49838;51.798;10.954;2023-12-14T05:05:37;9.90;53.10
64549;DHT22;49838;51.798;10.954;2023-12-14T05:08:05;9.80;53.10
64549;DHT22;49838;51.798;10.954;2023-12-14T05:10:32;9.80;53.20
64549;DHT22;49838;51.798;10.954;2023-12-14T05:12:59;9.80;53.10
64549;DHT22;49838;51.798;10.954;2023-12-14T05:15:28;9.90;53.10
64549;DHT22;49838;51.798;10.954;2023-12-14T05:17:56;9.80;53.00
64549;DHT22;49838;51.798;10.954;2023-12-14T05:20:23;9.90;53.00
64549;DHT22;49838;51.798;10.954;2023-12-14T05:22:51;9.90;53.00
64549;DHT22;49838;51.798;10.954;2023-12-14T05:25:18;9.80;52.90
64549;DHT22;49838;51.798;10.954;2023-12-14T05:27:45;9.80;53.00
64549;DHT22;49838;51.798;10.954;2023-12-14T05:30:13;9.90;53.10
64549;DHT22;49838;51.798;10.954;2023-12-14T05:32:42;9.90;53.00
64549;DHT22;49838;51.798;10.954;2023-12-14T05:35:09;9.90;52.90
64549;DHT22;49838;51.798;10.954;2023-12-14T05:37:38;9.90;52.80
64549;DHT22;49838;51.798;10.954;2023-12-14T05:40:06;10.10;52.00
64549;DHT22;49838;51.798;10.954;2023-12-14T05:42:34;10.00;51.80
64549;DHT22;49838;51.798;10.954;2023-12-14T05:45:01;10.00;51.80
64549;DHT22;49838;51.798;10.954;2023-12-14T05:47:29;10.00;51.90
64549;DHT22;49838;51.798;10.954;2023-12-14T05:50:01;10.00;51.90
64549;DHT22;49838;51.798;10.954;2023-12-14T05:52:28;10.10;51.90
64549;DHT22;49838;51.798;10.954;2023-12-14T05:54:55;10.10;51.90
64549;DHT22;49838;51.798;10.954;2023-12-14T05:57:26;10.10;51.90
64549;DHT22;49838;51.798;10.954;2023-12-14T05:59:53;10.10;51.90
64549;DHT22;49838;51.798;10.954;2023-12-14T06:02:21;10.10;52.00
64549;DHT22;49838;51.798;10.954;2023-12-14T06:04:48;10.10;52.10
64549;DHT22;49838;51.798;10.954;2023-12-14T06:07:16;10.00;52.20
64549;DHT22;49838;51.798;10.954;2023-12-14T06:09:46;10.00;52.20
64549;DHT22;49838;51.798;10.954;2023-12-14T06:12:13;10.00;52.30
64549;DHT22;49838;51.798;10.954;2023-12-14T06:14:40;10.00;52.40
64549;DHT22;49838;51.798;10.954;2023-12-14T06:17:08;10.00;52.40
64549;DHT22;49838;51.798;10.954;2023-12-14T06:19:35;10.00;52.40
64549;DHT22;49838;51.798;10.954;2023-12-14T06:22:02;10.10;52.40
64549;DHT22;49838;51.798;10.954;2023-12-14T06:24:31;10.10;52.40
64549;DHT22;49838;51.798;10.954;2023-12-14T06:26:59;10.10;52.40
64549;DHT22;49838;51.798;10.954;2023-12-14T06:29:26;10.10;52.40
64549;DHT22;49838;51.798;10.954;2023-12-14T06:31:54;10.10;52.30
64549;DHT22;49838;51.798;10.954;2023-12-14T06:34:21;10.10;52.30
64549;DHT22;49838;51.798;10.954;2023-12-14T06:36:48;10.10;52.40
64549;DHT22;49838;51.798;10.954;2023-12-14T06:39:16;10.00;52.30
64549;DHT22;49838;51.798;10.954;2023-12-14T06:41:44;10.00;52.40
64549;DHT22;49838;51.798;10.954;2023-12-14T06:44:12;10.00;52.40
64549;DHT22;49838;51.798;10.954;2023-12-14T06:46:39;9.90;53.30
64549;DHT22;49838;51.798;10.954;2023-12-14T06:49:06;9.90;53.40
64549;DHT22;49838;51.798;10.954;2023-12-14T06:51:34;9.90;53.50
64549;DHT22;49838;51.798;10.954;2023-12-14T06:54:01;9.90;53.50
64549;DHT22;49838;51.798;10.954;2023-12-14T06:56:28;9.80;53.70
64549;DHT22;49838;51.798;10.954;2023-12-14T06:58:57;9.80;53.50
64549;DHT22;49838;51.798;10.954;2023-12-14T07:01:24;9.80;53.70
64549;DHT22;49838;51.798;10.954;2023-12-14T07:03:51;9.80;53.70
64549;DHT22;49838;51.798;10.954;2023-12-14T07:06:20;9.80;53.60
64549;DHT22;49838;51.798;10.954;2023-12-14T07:08:47;9.80;53.70
64549;DHT22;49838;51.798;10.954;2023-12-14T07:11:18;9.70;53.60
64549;DHT22;49838;51.798;10.954;2023-12-14T07:13:45;9.70;53.70
64549;DHT22;49838;51.798;10.954;2023-12-14T07:16:14;9.80;53.60
64549;DHT22;49838;51.798;10.954;2023-12-14T07:18:43;9.80;53.60
64549;DHT22;49838;51.798;10.954;2023-12-14T07:21:13;9.90;53.60
64549;DHT22;49838;51.798;10.954;2023-12-14T07:23:41;9.80;53.60
64549;DHT22;49838;51.798;10.954;2023-12-14T07:26:08;9.80;53.60
64549;DHT22;49838;51.798;10.954;2023-12-14T07:28:36;9.80;53.60
64549;DHT22;49838;51.798;10.954;2023-12-14T07:31:03;9.70;53.70
64549;DHT22;49838;51.798;10.954;2023-12-14T07:33:32;9.70;53.70
64549;DHT22;49838;51.798;10.954;2023-12-14T07:35:59;9.60;53.70
64549;DHT22;49838;51.798;10.954;2023-12-14T07:38:26;9.60;53.70
64549;DHT22;49838;51.798;10.954;2023-12-14T07:40:54;9.60;53.90
64549;DHT22;49838;51.798;10.954;2023-12-14T07:43:21;9.50;53.80
64549;DHT22;49838;51.798;10.954;2023-12-14T07:45:48;9.50;53.80
64549;DHT22;49838;51.798;10.954;2023-12-14T07:48:16;9.50;53.80
64549;DHT22;49838;51.798;10.954;2023-12-14T07:50:44;9.50;53.90
64549;DHT22;49838;51.798;10.954;2023-12-14T07:53:12;9.50;54.00
64549;DHT22;49838;51.798;10.954;2023-12-14T07:55:39;9.50;53.90
64549;DHT22;49838;51.798;10.954;2023-12-14T07:58:07;9.50;54.00
64549;DHT22;49838;51.798;10.954;2023-12-14T08:00:35;9.50;54.00
64549;DHT22;49838;51.798;10.954;2023-12-14T08:03:02;9.60;54.00
64549;DHT22;49838;51.798;10.954;2023-12-14T08:05:29;9.60;53.90
64549;DHT22;49838;51.798;10.954;2023-12-14T08:07:58;9.70;53.90
64549;DHT22;49838;51.798;10.954;2023-12-14T08:10:25;9.60;53.80
64549;DHT22;49838;51.798;10.954;2023-12-14T08:12:53;9.70;53.90
64549;DHT22;49838;51.798;10.954;2023-12-14T08:15:20;9.70;53.80
64549;DHT22;49838;51.798;10.954;2023-12-14T08:17:47;9.70;53.80
64549;DHT22;49838;51.798;10.954;2023-12-14T08:20:15;9.80;53.90
64549;DHT22;49838;51.798;10.954;2023-12-14T08:22:42;9.80;53.80
64549;DHT22;49838;51.798;10.954;2023-12-14T08:25:13;9.80;53.90
64549;DHT22;49838;51.798;10.954;2023-12-14T08:27:41;9.80;53.90
64549;DHT22;49838;51.798;10.954;2023-12-14T08:30:10;9.80;53.90
64549;DHT22;49838;51.798;10.954;2023-12-14T08:32:38;9.80;53.90
64549;DHT22;49838;51.798;10.954;2023-12-14T08:35:05;9.80;53.90
64549;DHT22;49838;51.798;10.954;2023-12-14T08:37:34;9.80;54.00
64549;DHT22;49838;51.798;10.954;2023-12-14T08:40:02;9.80;54.00
64549;DHT22;49838;51.798;10.954;2023-12-14T08:42:31;9.80;53.70
64549;DHT22;49838;51.798;10.954;2023-12-14T08:44:59;9.80;53.90
64549;DHT22;49838;51.798;10.954;2023-12-14T08:47:26;9.80;54.00
64549;DHT22;49838;51.798;10.954;2023-12-14T08:49:53;9.90;54.00
64549;DHT22;49838;51.798;10.954;2023-12-14T08:52:21;9.90;53.90
64549;DHT22;49838;51.798;10.954;2023-12-14T08:54:48;9.90;53.90
64549;DHT22;49838;51.798;10.954;2023-12-14T08:57:15;9.90;53.90
64549;DHT22;49838;51.798;10.954;2023-12-14T08:59:44;10.00;53.20
64549;DHT22;49838;51.798;10.954;2023-12-14T09:02:11;10.00;53.00
64549;DHT22;49838;51.798;10.954;2023-12-14T09:04:38;10.10;53.10
64549;DHT22;49838;51.798;10.954;2023-12-14T09:07:06;10.10;53.10
64549;DHT22;49838;51.798;10.954;2023-12-14T09:09:33;10.10;53.10
64549;DHT22;49838;51.798;10.954;2023-12-14T09:12:00;10.10;53.10
64549;DHT22;49838;51.798;10.954;2023-12-14T09:14:27;10.10;53.10
64549;DHT22;49838;51.798;10.954;2023-12-14T09:16:57;10.10;53.10
64549;DHT22;49838;51.798;10.954;2023-12-14T09:19:24;10.00;53.10
64549;DHT22;49838;51.798;10.954;2023-12-14T09:21:51;10.00;53.20
64549;DHT22;49838;51.798;10.954;2023-12-14T09:24:18;10.00;53.20
64549;DHT22;49838;51.798;10.954;2023-12-14T09:26:46;10.00;53.20
64549;DHT22;49838;51.798;10.954;2023-12-14T09:29:13;10.10;53.20
64549;DHT22;49838;51.798;10.954;2023-12-14T09:31:41;10.00;53.20
64549;DHT22;49838;51.798;10.954;2023-12-14T09:34:10;10.00;53.20
64549;DHT22;49838;51.798;10.954;2023-12-14T09:36:38;10.00;53.20
64549;DHT22;49838;51.798;10.954;2023-12-14T09:39:06;10.00;53.30
64549;DHT22;49838;51.798;10.954;2023-12-14T09:41:36;10.10;53.40
64549;DHT22;49838;51.798;10.954;2023-12-14T09:44:04;10.10;53.40
64549;DHT22;49838;51.798;10.954;2023-12-14T09:46:33;10.10;53.40
64549;DHT22;49838;51.798;10.954;2023-12-14T09:49:01;10.10;53.30
64549;DHT22;49838;51.798;10.954;2023-12-14T09:51:31;10.10;53.40
64549;DHT22;49838;51.798;10.954;2023-12-14T09:53:58;10.00;53.30
64549;DHT22;49838;51.798;10.954;2023-12-14T09:56:26;10.00;53.40
64549;DHT22;49838;51.798;10.954;2023-12-14T09:58:54;10.00;53.40
64549;DHT22;49838;51.798;10.954;2023-12-14T10:01:22;10.00;53.40
64549;DHT22;49838;51.798;10.954;2023-12-14T10:03:50;10.10;53.40
64549;DHT22;49838;51.798;10.954;2023-12-14T10:06:34;10.10;54.00
64549;DHT22;49838;51.798;10.954;2023-12-14T10:09:02;10.10;53.30
64549;DHT22;49838;51.798;10.954;2023-12-14T10:11:29;10.10;53.30
64549;DHT22;49838;51.798;10.954;2023-12-14T10:13:57;10.10;53.30
64549;DHT22;49838;51.798;10.954;2023-12-14T10:16:27;10.10;53.40
64549;DHT22;49838;51.798;10.954;2023-12-14T10:18:56;10.00;53.40
64549;DHT22;49838;51.798;10.954;2023-12-14T10:21:24;10.10;54.00
64549;DHT22;49838;51.798;10.954;2023-12-14T10:23:53;10.00;53.30
64549;DHT22;49838;51.798;10.954;2023-12-14T10:26:22;10.00;53.40
64549;DHT22;49838;51.798;10.954;2023-12-14T10:28:49;10.00;53.40
64549;DHT22;49838;51.798;10.954;2023-12-14T10:31:17;10.00;53.40
64549;DHT22;49838;51.798;10.954;2023-12-14T10:33:45;10.10;53.40
64549;DHT22;49838;51.798;10.954;2023-12-14T10:36:13;10.10;53.40
64549;DHT22;49838;51.798;10.954;2023-12-14T10:38:41;10.00;53.40
64549;DHT22;49838;51.798;10.954;2023-12-14T10:41:12;10.00;53.50
64549;DHT22;49838;51.798;10.954;2023-12-14T10:43:41;10.00;53.50
64549;DHT22;49838;51.798;10.954;2023-12-14T10:46:09;10.00;53.40
64549;DHT22;49838;51.798;10.954;2023-12-14T10:48:37;10.00;53.50
64549;DHT22;49838;51.798;10.954;2023-12-14T10:51:09;9.90;54.30
64549;DHT22;49838;51.798;10.954;2023-12-14T10:53:38;9.90;54.40
64549;DHT22;49838;51.798;10.954;2023-12-14T10:56:06;9.90;54.40
64549;DHT22;49838;51.798;10.954;2023-12-14T10:58:45;9.90;54.40
64549;DHT22;49838;51.798;10.954;2023-12-14T11:01:15;9.90;54.50
64549;DHT22;49838;51.798;10.954;2023-12-14T11:03:43;9.90;54.50
64549;DHT22;49838;51.798;10.954;2023-12-14T11:06:21;9.90;54.40
64549;DHT22;49838;51.798;10.954;2023-12-14T11:08:57;9.80;54.40
64549;DHT22;49838;51.798;10.954;2023-12-14T11:11:38;9.80;54.40
64549;DHT22;49838;51.798;10.954;2023-12-14T11:14:12;9.90;54.50
64549;DHT22;49838;51.798;10.954;2023-12-14T11:16:40;9.80;54.40
64549;DHT22;49838;51.798;10.954;2023-12-14T11:19:24;9.90;54.40
64549;DHT22;49838;51.798;10.954;2023-12-14T11:22:22;9.80;54.40
64549;DHT22;49838;51.798;10.954;2023-12-14T11:24:51;9.80;54.60
64549;DHT22;49838;51.798;10.954;2023-12-14T11:27:20;9.80;54.50
64549;DHT22;49838;51.798;10.954;2023-12-14T11:29:54;9.80;54.50
64549;DHT22;49838;51.798;10.954;2023-12-14T11:32:24;9.80;54.50
64549;DHT22;49838;51.798;10.954;2023-12-14T11:34:52;9.80;54.50
64549;DHT22;49838;51.798;10.954;2023-12-14T11:37:19;9.80;54.60
64549;DHT22;49838;51.798;10.954;2023-12-14T11:39:49;9.80;54.70
64549;DHT22;49838;51.798;10.954;2023-12-14T11:42:17;9.80;54.70
64549;DHT22;49838;51.798;10.954;2023-12-14T11:44:45;9.80;54.70
64549;DHT22;49838;51.798;10.954;2023-12-14T11:47:14;9.80;54.70
64549;DHT22;49838;51.798;10.954;2023-12-14T11:49:41;9.80;54.70
64549;DHT22;49838;51.798;10.954;2023-12-14T11:52:09;9.80;54.70
64549;DHT22;49838;51.798;10.954;2023-12-14T11:54:37;9.90;55.40
64549;DHT22;49838;51.798;10.954;2023-12-14T11:57:04;9.90;54.70
64549;DHT22;49838;51.798;10.954;2023-12-14T11:59:34;9.90;54.70
64549;DHT22;49838;51.798;10.954;2023-12-14T12:02:02;9.80;54.70
64549;DHT22;49838;51.798;10.954;2023-12-14T12:04:31;9.80;54.80
64549;DHT22;49838;51.798;10.954;2023-12-14T12:06:59;9.80;54.80
64549;DHT22;49838;51.798;10.954;2023-12-14T12:09:33;9.80;54.80
64549;DHT22;49838;51.798;10.954;2023-12-14T12:12:04;9.90;54.80
64549;DHT22;49838;51.798;10.954;2023-12-14T12:14:33;9.90;54.80
64549;DHT22;49838;51.798;10.954;2023-12-14T12:17:00;9.80;54.70
64549;DHT22;49838;51.798;10.954;2023-12-14T12:19:27;9.90;54.80
64549;DHT22;49838;51.798;10.954;2023-12-14T12:21:56;9.90;54.80
64549;DHT22;49838;51.798;10.954;2023-12-14T12:24:23;9.90;54.80
64549;DHT22;49838;51.798;10.954;2023-12-14T12:26:50;9.90;54.70
64549;DHT22;49838;51.798;10.954;2023-12-14T12:29:18;9.90;54.80
64549;DHT22;49838;51.798;10.954;2023-12-14T12:31:45;9.90;54.90
64549;DHT22;49838;51.798;10.954;2023-12-14T12:34:12;9.90;54.80
64549;DHT22;49838;51.798;10.954;2023-12-14T12:36:39;9.90;54.80
64549;DHT22;49838;51.798;10.954;2023-12-14T12:39:08;10.00;54.60
64549;DHT22;49838;51.798;10.954;2023-12-14T12:41:36;9.90;54.80
64549;DHT22;49838;51.798;10.954;2023-12-14T12:44:04;10.00;54.00
64549;DHT22;49838;51.798;10.954;2023-12-14T12:46:34;9.90;54.80
64549;DHT22;49838;51.798;10.954;2023-12-14T12:49:02;9.90;54.90
64549;DHT22;49838;51.798;10.954;2023-12-14T12:51:30;9.90;54.90
64549;DHT22;49838;51.798;10.954;2023-12-14T12:53:58;9.90;54.90
64549;DHT22;49838;51.798;10.954;2023-12-14T12:56:27;9.90;55.00
64549;DHT22;49838;51.798;10.954;2023-12-14T12:58:54;9.90;55.00
64549;DHT22;49838;51.798;10.954;2023-12-14T13:01:21;9.90;54.90
64549;DHT22;49838;51.798;10.954;2023-12-14T13:03:54;9.80;54.90
64549;DHT22;49838;51.798;10.954;2023-12-14T13:06:23;9.80;55.00
64549;DHT22;49838;51.798;10.954;2023-12-14T13:08:51;9.80;55.10
64549;DHT22;49838;51.798;10.954;2023-12-14T13:11:18;9.70;55.00
64549;DHT22;49838;51.798;10.954;2023-12-14T13:13:47;9.70;55.00
64549;DHT22;49838;51.798;10.954;2023-12-14T13:16:14;9.70;54.90
64549;DHT22;49838;51.798;10.954;2023-12-14T13:18:43;9.70;55.00
64549;DHT22;49838;51.798;10.954;2023-12-14T13:21:11;9.80;55.10
64549;DHT22;49838;51.798;10.954;2023-12-14T13:23:39;9.80;55.10
64549;DHT22;49838;51.798;10.954;2023-12-14T13:26:06;9.70;54.90
64549;DHT22;49838;51.798;10.954;2023-12-14T13:28:34;9.80;55.10
64549;DHT22;49838;51.798;10.954;2023-12-14T13:31:03;9.80;55.00
64549;DHT22;49838;51.798;10.954;2023-12-14T13:33:31;9.90;54.90
64549;DHT22;49838;51.798;10.954;2023-12-14T13:35:58;9.90;54.90
64549;DHT22;49838;51.798;10.954;2023-12-14T13:38:25;10.00;54.10
64549;DHT22;49838;51.798;10.954;2023-12-14T13:40:53;9.90;54.70
64549;DHT22;49838;51.798;10.954;2023-12-14T13:43:20;9.90;54.90
64549;DHT22;49838;51.798;10.954;2023-12-14T13:45:47;9.90;54.90
64549;DHT22;49838;51.798;10.954;2023-12-14T13:48:19;9.90;55.00
64549;DHT22;49838;51.798;10.954;2023-12-14T13:50:46;9.90;55.00
64549;DHT22;49838;51.798;10.954;2023-12-14T13:53:14;9.90;55.00
64549;DHT22;49838;51.798;10.954;2023-12-14T13:55:41;9.90;55.00
64549;DHT22;49838;51.798;10.954;2023-12-14T13:58:08;9.90;54.90
64549;DHT22;49838;51.798;10.954;2023-12-14T14:00:36;9.90;55.00
64549;DHT22;49838;51.798;10.954;2023-12-14T14:03:03;9.80;54.90
64549;DHT22;49838;51.798;10.954;2023-12-14T14:05:32;9.80;55.10
64549;DHT22;49838;51.798;10.954;2023-12-14T14:08:00;9.80;55.00
64549;DHT22;49838;51.798;10.954;2023-12-14T14:10:27;9.80;55.00
64549;DHT22;49838;51.798;10.954;2023-12-14T14:12:55;9.80;55.00
64549;DHT22;49838;51.798;10.954;2023-12-14T14:15:22;9.80;55.00
64549;DHT22;49838;51.798;10.954;2023-12-14T14:17:50;9.80;55.10
64549;DHT22;49838;51.798;10.954;2023-12-14T14:20:20;9.80;55.10
64549;DHT22;49838;51.798;10.954;2023-12-14T14:22:49;9.70;55.00
64549;DHT22;49838;51.798;10.954;2023-12-14T14:25:16;9.70;55.20
64549;DHT22;49838;51.798;10.954;2023-12-14T14:27:44;9.70;55.30
64549;DHT22;49838;51.798;10.954;2023-12-14T14:30:12;9.80;55.20
64549;DHT22;49838;51.798;10.954;2023-12-14T14:32:40;9.80;55.20
64549;DHT22;49838;51.798;10.954;2023-12-14T14:35:07;9.80;55.20
64549;DHT22;49838;51.798;10.954;2023-12-14T14:37:35;9.80;55.20
64549;DHT22;49838;51.798;10.954;2023-12-14T14:40:04;9.90;55.10
64549;DHT22;49838;51.798;10.954;2023-12-14T14:42:32;9.80;55.00
64549;DHT22;49838;51.798;10.954;2023-12-14T14:45:00;9.80;55.10
64549;DHT22;49838;51.798;10.954;2023-12-14T14:47:27;9.80;55.20
64549;DHT22;49838;51.798;10.954;2023-12-14T14:49:54;9.80;55.20
64549;DHT22;49838;51.798;10.954;2023-12-14T14:52:28;9.90;55.20
64549;DHT22;49838;51.798;10.954;2023-12-14T14:54:56;9.90;55.20
64549;DHT22;49838;51.798;10.954;2023-12-14T14:57:24;9.90;55.20
64549;DHT22;49838;51.798;10.954;2023-12-14T14:59:52;9.80;55.20
64549;DHT22;49838;51.798;10.954;2023-12-14T15:02:19;9.80;55.30
64549;DHT22;49838;51.798;10.954;2023-12-14T15:04:47;9.80;55.40
64549;DHT22;49838;51.798;10.954;2023-12-14T15:07:14;9.80;55.40
64549;DHT22;49838;51.798;10.954;2023-12-14T15:09:41;9.80;55.50
64549;DHT22;49838;51.798;10.954;2023-12-14T15:12:08;9.80;55.50
64549;DHT22;49838;51.798;10.954;2023-12-14T15:14:37;9.70;55.40
64549;DHT22;49838;51.798;10.954;2023-12-14T15:17:04;9.70;55.50
64549;DHT22;49838;51.798;10.954;2023-12-14T15:19:32;9.60;55.50
64549;DHT22;49838;51.798;10.954;2023-12-14T15:21:59;9.60;55.60
64549;DHT22;49838;51.798;10.954;2023-12-14T15:24:26;9.50;55.60
64549;DHT22;49838;51.798;10.954;2023-12-14T15:26:56;9.60;55.80
64549;DHT22;49838;51.798;10.954;2023-12-14T15:29:24;9.60;55.80